Terminal Aerodrome Forecast
Issued by NWS

Home | Current Version | Previous Version | Text Only | Print | Product List | Glossary On
Versions: 1 2 3 4 5 6 7 8 9 10 11 12 13 14
000
FTUS45 KRIW 122300
TAFWRL
TAF
KWRL 122326Z 1300/1324 33007KT P6SM VCSH SCT100 BKN140
     FM130500 16005KT P6SM SCT110
     FM132100 35010KT P6SM FEW080 SCT150=

USA.gov is the U.S. government's official web portal to all federal, state and local government web resources and services.